Аэропорт
Мары (UTAM)

 UTAM / MYP
ЗЦ Центральная Азия
Ашхабад (UTAA)
Ашхабад (UTAA)
 37.61940, 61.89670  / 728 ft

 UTAM 191000Z 28012G22KT 9999 SCT021CB SCT021 BKN100 12/06 Q1012 NOSIG
 UTAM 182230Z 1900/1924 32016G26KT 5000 -RA BKN015 SCT030CB 530007 TEMPO 1900/1906 22016G26KT 1500 BR TSSHRA BKN010 TEMPO 1906/1915 25022G32KT 2000 BR TSSHRA 570001 BECMG 1915/1916 30016KT 3000 BR -SHRA BKN010 TEMPO 1915/1924 -TSSHRA
показать схемы
Название сценария Тип сценария Flight Simulator 9 Flight Simulator X Prepar3D v2 Prepar3D v3 Prepar3D v4 xPlane
UTAM for FS9 (Afcad) бесплатный
UTAM for FSX/P3D (Afcad) бесплатный

Аэропорт Мары — международный аэропорт города Мары, Туркменистан. Для обслуживания авиапассажиров в аэропорту построен новый терминал пропускной способностью 300 человек в час, соответствующий международным стандартам. Расположен 6 км северо-востоку от центра Мары. Новое здание аэровокзала площадью более 3 000 квадратных метров было сдано в эксплуатацию в 2009 году. Тогда и приобрел аэропорт статус «Международного». Две взлетно-посадочных полосы обслуживают междугородние и внутренние рейсы. Длина одной 3800 метров, второй – 2800. Аэропорт принимает самолеты АН 12, АН 26, АН 30, ТУ 134, ИЛ 76, ЯК 40, Boeing 737, Boeing757, Boeing 777 и другие, более легкие, а также вертолеты всех типов. Тип аэропорта: совместного базирования.



2019 © VATRUS division (Privacy Policy)